createdAt,value
2017-12-24T00:00:59.903Z,90.60
2017-12-24T00:03:29.510Z,90.40
2017-12-24T00:05:58.533Z,90.60
2017-12-24T00:08:26.884Z,90.60
2017-12-24T00:10:55.894Z,90.60
2017-12-24T00:13:24.230Z,90.60
2017-12-24T00:15:52.798Z,90.60
2017-12-24T00:18:22.243Z,90.90
2017-12-24T00:20:51.292Z,90.70
2017-12-24T00:23:19.619Z,90.70
2017-12-24T00:25:48.666Z,90.10
2017-12-24T00:28:17.879Z,90.00
2017-12-24T00:30:46.154Z,90.00
2017-12-24T00:33:14.413Z,90.10
2017-12-24T00:35:44.858Z,90.40
2017-12-24T00:38:13.200Z,90.30
2017-12-24T00:40:41.457Z,90.60
2017-12-24T00:43:10.610Z,90.90
2017-12-24T00:45:39.023Z,90.90
2017-12-24T00:48:09.223Z,91.00
2017-12-24T00:50:39.442Z,91.00
2017-12-24T00:53:07.731Z,91.00
2017-12-24T00:55:36.190Z,91.00
2017-12-24T00:58:04.579Z,91.10
2017-12-24T01:00:34.027Z,91.10
2017-12-24T01:03:02.299Z,91.20
2017-12-24T01:05:30.555Z,91.20
2017-12-24T01:07:59.035Z,91.50
2017-12-24T01:10:28.309Z,91.30
2017-12-24T01:12:56.691Z,91.30
2017-12-24T01:15:25.111Z,91.60
2017-12-24T01:17:54.126Z,91.60
2017-12-24T01:20:22.459Z,91.60
2017-12-24T01:22:50.939Z,91.50
2017-12-24T01:25:19.186Z,91.90
2017-12-24T01:27:47.579Z,91.60
2017-12-24T01:30:15.850Z,91.80
2017-12-24T01:32:44.095Z,92.20
2017-12-24T01:35:12.343Z,92.00
2017-12-24T01:37:40.635Z,91.90
2017-12-24T01:40:08.879Z,91.90
2017-12-24T01:42:37.128Z,92.10
2017-12-24T01:45:05.449Z,92.60
2017-12-24T01:47:46.190Z,92.50
2017-12-24T01:50:14.463Z,92.40
2017-12-24T01:52:43.661Z,91.50
2017-12-24T01:55:12.021Z,91.70
2017-12-24T01:57:40.307Z,92.20
2017-12-24T02:00:08.550Z,92.00
2017-12-24T02:02:36.802Z,91.80
2017-12-24T02:05:05.831Z,91.40
2017-12-24T02:07:34.239Z,91.50
2017-12-24T02:10:02.633Z,92.20
2017-12-24T02:12:30.914Z,91.70
2017-12-24T02:14:59.265Z,91.80
2017-12-24T02:17:27.496Z,91.50
2017-12-24T02:19:55.796Z,91.40
2017-12-24T02:22:24.043Z,91.70
2017-12-24T02:24:53.054Z,91.80
2017-12-24T02:27:21.668Z,91.90
2017-12-24T02:29:49.929Z,91.50
2017-12-24T02:32:18.242Z,90.80
2017-12-24T02:34:46.502Z,90.60
2017-12-24T02:37:17.257Z,90.60
2017-12-24T02:39:45.512Z,91.00
2017-12-24T02:42:13.807Z,91.20
2017-12-24T02:44:42.084Z,91.10
2017-12-24T02:47:10.331Z,91.00
2017-12-24T02:49:38.947Z,91.10
2017-12-24T02:52:08.139Z,91.00
2017-12-24T02:54:36.408Z,91.00
2017-12-24T02:57:04.664Z,91.40
2017-12-24T02:59:33.898Z,91.10
2017-12-24T03:02:02.270Z,91.10
2017-12-24T03:04:30.539Z,91.50
2017-12-24T03:06:59.371Z,91.70
2017-12-24T03:09:28.386Z,91.80
2017-12-24T03:11:56.785Z,91.80
2017-12-24T03:14:25.042Z,92.20
2017-12-24T03:16:53.291Z,92.10
2017-12-24T03:19:22.489Z,92.10
2017-12-24T03:21:51.510Z,93.00
2017-12-24T03:24:19.753Z,93.00
2017-12-24T03:26:48.035Z,92.90
2017-12-24T03:29:16.287Z,93.10
2017-12-24T03:31:44.522Z,93.30
2017-12-24T03:34:13.086Z,93.20
2017-12-24T03:36:42.095Z,93.20
2017-12-24T03:39:10.334Z,93.10
2017-12-24T03:41:38.886Z,93.00
2017-12-24T03:44:07.115Z,92.80
2017-12-24T03:46:36.158Z,93.60
2017-12-24T03:49:04.439Z,93.20
2017-12-24T03:51:32.672Z,93.00
2017-12-24T03:54:00.914Z,93.10
2017-12-24T03:56:29.239Z,92.90
2017-12-24T03:58:57.486Z,92.70
2017-12-24T04:01:26.503Z,92.80
2017-12-24T04:03:54.810Z,92.70
2017-12-24T04:06:23.043Z,92.50
2017-12-24T04:08:51.505Z,92.30
2017-12-24T04:11:19.778Z,92.20
2017-12-24T04:13:48.022Z,92.70
2017-12-24T04:16:16.411Z,92.70
2017-12-24T04:18:44.871Z,92.50
2017-12-24T04:21:13.162Z,92.50
2017-12-24T04:23:41.403Z,92.80
2017-12-24T04:26:09.666Z,92.80
2017-12-24T04:28:38.675Z,92.90
2017-12-24T04:31:06.923Z,92.90
2017-12-24T04:33:35.183Z,92.90
2017-12-24T04:36:03.429Z,92.90
2017-12-24T04:38:31.666Z,93.20
2017-12-24T04:41:00.290Z,93.10
2017-12-24T04:43:28.574Z,93.20
2017-12-24T04:45:56.810Z,93.30
2017-12-24T04:48:26.299Z,93.00
2017-12-24T04:50:55.309Z,93.10
2017-12-24T04:53:24.555Z,93.10
2017-12-24T04:55:52.970Z,93.10
2017-12-24T04:58:21.974Z,93.30
2017-12-24T05:00:50.306Z,93.20
2017-12-24T05:03:18.887Z,92.90
2017-12-24T05:05:47.118Z,92.50
2017-12-24T05:08:15.373Z,92.60
2017-12-24T05:10:43.886Z,92.40
2017-12-24T05:13:12.130Z,92.50
2017-12-24T05:15:40.372Z,92.80
2017-12-24T05:18:08.642Z,93.00
2017-12-24T05:20:36.883Z,93.20
2017-12-24T05:23:05.127Z,93.20
2017-12-24T05:25:33.574Z,92.90
2017-12-24T05:28:01.815Z,92.90
2017-12-24T05:30:30.249Z,93.20
2017-12-24T05:32:58.531Z,93.20
2017-12-24T05:35:26.771Z,93.30
2017-12-24T05:37:57.227Z,93.30
2017-12-24T05:40:25.499Z,93.60
2017-12-24T05:42:53.739Z,94.00
2017-12-24T05:45:21.978Z,93.50
2017-12-24T05:47:50.526Z,93.60
2017-12-24T05:50:18.799Z,93.60
2017-12-24T05:52:47.195Z,93.80
2017-12-24T05:55:15.463Z,93.80
2017-12-24T05:57:43.703Z,93.90
2017-12-24T06:00:11.940Z,94.40
2017-12-24T06:02:40.206Z,93.70
2017-12-24T06:05:08.456Z,93.60
2017-12-24T06:07:36.695Z,93.50
2017-12-24T06:10:06.398Z,93.90
2017-12-24T06:12:34.879Z,93.90
2017-12-24T06:15:03.892Z,93.60
2017-12-24T06:17:32.175Z,93.60
2017-12-24T06:20:00.427Z,93.60
2017-12-24T06:22:29.597Z,93.30
2017-12-24T06:24:57.854Z,93.30
2017-12-24T06:27:26.099Z,93.10
2017-12-24T06:29:54.353Z,93.00
2017-12-24T06:32:22.671Z,92.90
2017-12-24T06:34:50.906Z,93.50
2017-12-24T06:37:19.922Z,93.50
2017-12-24T06:39:49.203Z,93.50
2017-12-24T06:42:18.220Z,93.60
2017-12-24T06:44:46.467Z,93.60
2017-12-24T06:47:14.739Z,93.40
2017-12-24T06:49:42.979Z,93.30
2017-12-24T06:52:11.222Z,93.20
2017-12-24T06:54:39.822Z,94.00
2017-12-24T06:57:08.080Z,94.30
2017-12-24T06:59:36.506Z,94.50
2017-12-24T07:02:04.777Z,94.10
2017-12-24T07:04:33.022Z,94.60
2017-12-24T07:07:01.268Z,94.10
2017-12-24T07:09:31.591Z,93.90
2017-12-24T07:12:00.622Z,94.40
2017-12-24T07:14:28.863Z,94.30
2017-12-24T07:16:57.399Z,94.30
2017-12-24T07:19:25.643Z,94.30
2017-12-24T07:21:53.870Z,94.60
2017-12-24T07:24:22.177Z,94.60
2017-12-24T07:26:51.195Z,94.70
2017-12-24T07:29:19.549Z,94.70
2017-12-24T07:31:48.575Z,94.90
2017-12-24T07:34:16.822Z,94.80
2017-12-24T07:36:45.068Z,94.90
2017-12-24T07:39:13.434Z,94.60
2017-12-24T07:41:43.870Z,94.60
2017-12-24T07:44:12.110Z,94.10
2017-12-24T07:46:40.387Z,94.50
2017-12-24T07:49:08.626Z,94.70
2017-12-24T07:51:37.077Z,94.40
2017-12-24T07:54:05.638Z,94.20
2017-12-24T07:56:33.881Z,94.00
2017-12-24T07:59:02.899Z,93.80
2017-12-24T08:01:31.419Z,93.80
2017-12-24T08:03:59.788Z,93.90
2017-12-24T08:06:28.012Z,93.80
2017-12-24T08:08:59.147Z,93.60
2017-12-24T08:11:28.166Z,93.90
2017-12-24T08:13:56.415Z,93.80
2017-12-24T08:16:24.701Z,93.70
2017-12-24T08:18:55.090Z,93.80
2017-12-24T08:21:23.330Z,93.40
2017-12-24T08:23:52.861Z,93.50
2017-12-24T08:26:21.119Z,93.40
2017-12-24T08:28:49.366Z,93.70
2017-12-24T08:31:18.395Z,93.20
2017-12-24T08:33:46.631Z,93.10
2017-12-24T08:36:15.899Z,93.30
2017-12-24T08:38:44.166Z,93.30
2017-12-24T08:41:12.412Z,93.20
2017-12-24T08:43:40.699Z,93.50
2017-12-24T08:46:09.178Z,93.50
2017-12-24T08:48:37.483Z,93.30
2017-12-24T08:51:05.722Z,93.30
2017-12-24T08:53:33.995Z,93.20
2017-12-24T08:56:02.247Z,93.20
2017-12-24T08:58:30.492Z,93.30
2017-12-24T09:00:58.755Z,93.00
2017-12-24T09:03:26.998Z,93.30
2017-12-24T09:05:55.251Z,93.00
2017-12-24T09:08:24.346Z,93.20
2017-12-24T09:10:53.366Z,92.90
2017-12-24T09:13:21.619Z,92.80
2017-12-24T09:15:50.655Z,93.20
2017-12-24T09:18:18.886Z,93.20
2017-12-24T09:20:47.130Z,92.40
2017-12-24T09:23:15.399Z,92.20
2017-12-24T09:25:43.786Z,91.80
2017-12-24T09:28:12.023Z,92.00
2017-12-24T09:30:40.640Z,91.70
2017-12-24T09:33:08.863Z,91.50
2017-12-24T09:35:37.930Z,91.80
2017-12-24T09:38:06.198Z,91.80
2017-12-24T09:40:34.871Z,91.90
2017-12-24T09:43:03.095Z,91.80
2017-12-24T09:45:32.127Z,91.80
2017-12-24T09:48:00.362Z,91.80
2017-12-24T09:50:28.808Z,91.90
2017-12-24T09:52:57.258Z,92.30
2017-12-24T09:55:25.768Z,92.30
2017-12-24T09:57:53.994Z,91.90
2017-12-24T10:00:23.099Z,91.40
2017-12-24T10:02:51.359Z,91.40
2017-12-24T10:05:20.376Z,91.30
2017-12-24T10:07:49.643Z,91.30
2017-12-24T10:10:18.646Z,91.20
2017-12-24T10:12:49.755Z,91.50
2017-12-24T10:15:18.214Z,91.50
2017-12-24T10:17:46.454Z,91.50
2017-12-24T10:20:14.699Z,91.80
2017-12-24T10:22:43.023Z,91.40
2017-12-24T10:25:11.242Z,91.40
2017-12-24T10:27:39.491Z,91.40
2017-12-24T10:30:08.743Z,91.20
2017-12-24T10:32:37.759Z,91.30
2017-12-24T10:35:07.925Z,91.20
2017-12-24T10:37:36.272Z,91.20
2017-12-24T10:40:04.687Z,92.00
2017-12-24T10:42:32.931Z,91.10
2017-12-24T10:45:01.198Z,91.60
2017-12-24T10:47:29.447Z,91.40
2017-12-24T10:49:57.687Z,90.70
2017-12-24T10:52:25.956Z,90.60
2017-12-24T10:54:54.194Z,90.50
2017-12-24T10:57:23.669Z,91.20
2017-12-24T10:59:52.242Z,90.90
2017-12-24T11:02:20.713Z,90.80
2017-12-24T11:04:48.947Z,90.60
2017-12-24T11:07:23.011Z,91.20
2017-12-24T11:09:51.382Z,91.00
2017-12-24T11:12:19.762Z,91.30
2017-12-24T11:14:48.026Z,91.20
2017-12-24T11:17:17.459Z,90.90
2017-12-24T11:19:45.968Z,90.80
2017-12-24T11:22:14.591Z,90.80
2017-12-24T11:24:42.854Z,90.60
2017-12-24T11:27:11.267Z,90.80
2017-12-24T11:29:39.666Z,91.10
2017-12-24T11:32:08.019Z,91.40
2017-12-24T11:34:36.262Z,91.20
2017-12-24T11:37:04.527Z,90.80
2017-12-24T11:39:33.535Z,91.30
2017-12-24T11:42:01.845Z,91.20
2017-12-24T11:44:30.316Z,91.00
2017-12-24T11:46:58.798Z,91.10
2017-12-24T11:49:29.482Z,91.10
2017-12-24T11:51:57.739Z,91.30
2017-12-24T11:54:25.979Z,91.50
2017-12-24T11:56:54.223Z,91.30
2017-12-24T11:59:22.683Z,91.60
2017-12-24T12:01:57.485Z,92.20
2017-12-24T12:04:25.947Z,92.20
2017-12-24T12:06:56.400Z,91.60
2017-12-24T12:09:24.642Z,90.90
2017-12-24T12:11:53.183Z,90.80
2017-12-24T12:14:22.203Z,90.60
2017-12-24T12:16:50.460Z,90.50
2017-12-24T12:19:18.730Z,91.10
2017-12-24T12:21:50.967Z,91.00
2017-12-24T12:24:19.403Z,90.80
2017-12-24T12:26:48.659Z,90.90
2017-12-24T12:29:16.894Z,90.90
2017-12-24T12:31:45.188Z,90.80
2017-12-24T12:34:13.683Z,90.70
2017-12-24T12:36:41.918Z,91.20
2017-12-24T12:39:10.182Z,91.40
2017-12-24T12:41:38.606Z,91.60
2017-12-24T12:44:11.090Z,91.80
2017-12-24T12:46:41.523Z,91.10
2017-12-24T12:49:10.815Z,91.10
2017-12-24T12:51:39.226Z,91.30
2017-12-24T12:54:09.411Z,91.60
2017-12-24T12:56:37.804Z,91.70
2017-12-24T12:59:11.134Z,92.00
2017-12-24T13:01:41.002Z,90.90
2017-12-24T13:04:09.238Z,90.90
2017-12-24T13:06:38.147Z,91.70
2017-12-24T13:09:06.390Z,90.70
2017-12-24T13:11:34.836Z,90.90
2017-12-24T13:14:03.104Z,90.40
2017-12-24T13:16:31.394Z,90.70
2017-12-24T13:18:59.722Z,90.80
2017-12-24T13:21:29.631Z,91.10
2017-12-24T13:23:57.961Z,91.30
2017-12-24T13:26:26.389Z,91.60
2017-12-24T13:28:54.727Z,91.70
2017-12-24T13:31:23.412Z,92.00
2017-12-24T13:33:51.651Z,91.30
2017-12-24T13:36:19.931Z,91.80
2017-12-24T13:38:48.234Z,91.00
2017-12-24T13:41:16.473Z,90.90
2017-12-24T13:43:44.831Z,90.20
2017-12-24T13:46:13.070Z,89.80
2017-12-24T13:48:41.337Z,90.10
2017-12-24T13:51:09.651Z,90.50
2017-12-24T13:53:37.896Z,90.40
2017-12-24T13:56:06.280Z,90.70
2017-12-24T13:58:35.595Z,90.50
2017-12-24T14:01:04.877Z,90.50
2017-12-24T14:03:33.119Z,90.20
2017-12-24T14:06:02.583Z,91.10
2017-12-24T14:08:31.131Z,90.30
2017-12-24T14:11:00.551Z,91.00
2017-12-24T14:13:31.269Z,91.10
2017-12-24T14:15:59.629Z,90.70
2017-12-24T14:18:29.058Z,90.60
2017-12-24T14:20:58.389Z,91.00
2017-12-24T14:23:28.387Z,90.20
2017-12-24T14:25:56.655Z,89.90
2017-12-24T14:28:25.063Z,90.50
2017-12-24T14:30:54.335Z,90.50
2017-12-24T14:33:22.574Z,90.50
2017-12-24T14:35:51.174Z,91.10
2017-12-24T14:38:19.427Z,91.50
2017-12-24T14:40:47.851Z,91.20
2017-12-24T14:43:16.259Z,91.40
2017-12-24T14:45:45.818Z,91.60
2017-12-24T14:48:14.052Z,91.40
2017-12-24T14:50:43.406Z,91.00
2017-12-24T14:53:11.640Z,91.00
2017-12-24T14:55:40.643Z,90.60
2017-12-24T14:58:08.981Z,90.50
2017-12-24T15:00:37.271Z,90.40
2017-12-24T15:03:05.515Z,91.60
2017-12-24T15:05:35.971Z,91.80
2017-12-24T15:08:05.255Z,91.10
2017-12-24T15:10:33.621Z,90.90
2017-12-24T15:13:02.031Z,90.70
2017-12-24T15:15:32.229Z,90.20
2017-12-24T15:18:00.474Z,90.40
2017-12-24T15:20:28.807Z,90.70
2017-12-24T15:22:59.206Z,90.50
2017-12-24T15:25:27.903Z,90.30
2017-12-24T15:27:56.371Z,90.70
2017-12-24T15:30:24.654Z,90.60
2017-12-24T15:32:53.035Z,90.90
2017-12-24T15:35:21.443Z,91.00
2017-12-24T15:37:50.717Z,91.50
2017-12-24T15:40:20.015Z,91.40
2017-12-24T15:42:48.482Z,91.00
2017-12-24T15:45:17.695Z,90.80
2017-12-24T15:47:45.939Z,91.10
2017-12-24T15:50:14.203Z,90.90
2017-12-24T15:52:42.442Z,90.90
2017-12-24T15:55:10.679Z,90.60
2017-12-24T15:57:38.946Z,91.10
2017-12-24T16:00:07.355Z,90.80
2017-12-24T16:02:37.589Z,90.40
2017-12-24T16:05:05.915Z,91.20
2017-12-24T16:07:34.335Z,90.90
2017-12-24T16:10:03.426Z,91.60
2017-12-24T16:12:32.654Z,92.00
2017-12-24T16:15:01.945Z,91.20
2017-12-24T16:17:30.170Z,90.90
2017-12-24T16:19:58.434Z,90.80
2017-12-24T16:22:29.830Z,91.10
2017-12-24T16:25:00.223Z,92.00
2017-12-24T16:27:29.664Z,92.00
2017-12-24T16:29:57.895Z,92.10
2017-12-24T16:32:27.371Z,92.00
2017-12-24T16:34:56.387Z,92.10
2017-12-24T16:37:24.718Z,91.90
2017-12-24T16:39:58.047Z,92.30
2017-12-24T16:42:27.065Z,92.90
2017-12-24T16:44:56.338Z,92.80
2017-12-24T16:47:25.692Z,91.90
2017-12-24T16:49:53.951Z,91.90
2017-12-24T16:52:22.194Z,92.30
2017-12-24T16:54:51.335Z,91.90
2017-12-24T16:57:19.736Z,92.30
2017-12-24T16:59:47.978Z,91.90
2017-12-24T17:02:16.252Z,91.90
2017-12-24T17:04:44.490Z,92.20
2017-12-24T17:07:12.738Z,92.00
2017-12-24T17:09:41.412Z,92.10
2017-12-24T17:12:09.659Z,92.30
2017-12-24T17:14:37.911Z,92.70
2017-12-24T17:17:06.178Z,92.90
2017-12-24T17:19:34.448Z,93.10
2017-12-24T17:22:02.698Z,92.60
2017-12-24T17:24:30.968Z,92.50
2017-12-24T17:26:59.203Z,92.60
2017-12-24T17:29:28.675Z,92.90
2017-12-24T17:31:57.176Z,93.30
2017-12-24T17:34:25.379Z,93.40
2017-12-24T17:36:54.003Z,93.20
2017-12-24T17:39:22.247Z,93.50
2017-12-24T17:41:50.570Z,93.20
2017-12-24T17:44:18.827Z,93.10
2017-12-24T17:46:47.413Z,93.20
2017-12-24T17:49:15.700Z,93.50
2017-12-24T17:51:43.947Z,93.50
2017-12-24T17:54:13.519Z,93.40
2017-12-24T17:56:42.682Z,93.40
2017-12-24T17:59:11.059Z,93.40
2017-12-24T18:01:39.341Z,94.70
2017-12-24T18:04:07.579Z,94.70
2017-12-24T18:06:35.897Z,95.10
2017-12-24T18:09:04.292Z,94.40
2017-12-24T18:11:34.531Z,93.80
2017-12-24T18:14:03.556Z,93.80
2017-12-24T18:16:32.264Z,93.80
2017-12-24T18:19:00.551Z,94.30
2017-12-24T18:21:28.794Z,94.80
2017-12-24T18:23:57.067Z,94.50
2017-12-24T18:26:25.310Z,94.60
2017-12-24T18:28:53.656Z,94.80
2017-12-24T18:31:23.087Z,94.60
2017-12-24T18:33:51.500Z,94.10
2017-12-24T18:36:19.825Z,94.50
2017-12-24T18:38:48.138Z,93.80
2017-12-24T18:41:17.143Z,93.40
2017-12-24T18:43:45.573Z,93.40
2017-12-24T18:46:15.820Z,93.50
2017-12-24T18:48:44.824Z,94.60
2017-12-24T18:51:13.838Z,94.60
2017-12-24T18:53:42.203Z,94.60
2017-12-24T18:56:12.420Z,94.50
2017-12-24T18:58:40.763Z,94.40
2017-12-24T19:01:09.095Z,94.50
2017-12-24T19:03:37.341Z,94.90
2017-12-24T19:06:05.599Z,94.90
2017-12-24T19:08:33.875Z,95.00
2017-12-24T19:11:02.107Z,95.20
2017-12-24T19:13:30.354Z,95.60
2017-12-24T19:15:58.624Z,95.30
2017-12-24T19:18:26.871Z,95.40
2017-12-24T19:21:06.491Z,95.70
2017-12-24T19:23:35.007Z,95.30
2017-12-24T19:26:03.271Z,95.60
2017-12-24T19:28:31.647Z,95.50
2017-12-24T19:31:00.131Z,95.90
2017-12-24T19:33:28.514Z,95.30
2017-12-24T19:35:56.800Z,95.30
2017-12-24T19:38:25.031Z,94.60
2017-12-24T19:40:53.371Z,94.00
2017-12-24T19:43:21.933Z,93.70
2017-12-24T19:45:51.330Z,94.10
2017-12-24T19:48:19.587Z,94.00
2017-12-24T19:50:47.854Z,94.40
2017-12-24T19:53:16.188Z,94.50
2017-12-24T19:55:44.440Z,94.40
2017-12-24T19:58:12.728Z,94.80
2017-12-24T20:00:40.971Z,95.40
2017-12-24T20:03:09.211Z,95.10
2017-12-24T20:05:38.571Z,94.70
2017-12-24T20:08:07.978Z,94.70
2017-12-24T20:10:37.279Z,95.10
2017-12-24T20:13:05.551Z,95.10
2017-12-24T20:15:33.795Z,95.00
2017-12-24T20:18:02.039Z,95.40
2017-12-24T20:20:30.926Z,94.00
2017-12-24T20:23:00.096Z,94.00
2017-12-24T20:25:28.477Z,93.90
2017-12-24T20:27:58.158Z,93.50
2017-12-24T20:30:26.467Z,93.10
2017-12-24T20:32:55.038Z,93.60
2017-12-24T20:35:23.567Z,93.20
2017-12-24T20:37:53.754Z,94.10
2017-12-24T20:40:22.218Z,94.00
2017-12-24T20:42:50.510Z,93.90
2017-12-24T20:45:19.830Z,94.50
2017-12-24T20:47:49.115Z,94.50
2017-12-24T20:50:17.735Z,93.90
2017-12-24T20:52:46.179Z,93.70
2017-12-24T20:55:14.423Z,93.60
2017-12-24T20:57:42.695Z,94.10
2017-12-24T21:00:13.155Z,93.60
2017-12-24T21:02:41.403Z,93.60
2017-12-24T21:05:09.709Z,93.80
2017-12-24T21:07:38.399Z,93.70
2017-12-24T21:10:06.674Z,93.50
2017-12-24T21:12:35.007Z,94.20
2017-12-24T21:15:03.260Z,93.70
2017-12-24T21:17:32.270Z,93.00
2017-12-24T21:20:00.565Z,93.00
2017-12-24T21:22:28.840Z,93.30
2017-12-24T21:24:57.075Z,93.30
2017-12-24T21:27:25.367Z,93.10
2017-12-24T21:29:54.382Z,93.30
2017-12-24T21:32:23.052Z,93.30
2017-12-24T21:34:52.209Z,94.20
2017-12-24T21:37:20.686Z,94.20
2017-12-24T21:39:49.166Z,94.00
2017-12-24T21:42:17.422Z,94.30
2017-12-24T21:44:45.654Z,93.80
2017-12-24T21:47:13.898Z,93.30
2017-12-24T21:49:42.177Z,93.80
2017-12-24T21:52:10.432Z,93.40
2017-12-24T21:54:38.679Z,93.10
2017-12-24T21:57:07.584Z,93.40
2017-12-24T21:59:36.012Z,93.70
2017-12-24T22:02:04.246Z,93.30
2017-12-24T22:04:32.589Z,94.00
2017-12-24T22:07:02.798Z,93.90
2017-12-24T22:09:31.838Z,94.30
2017-12-24T22:12:02.335Z,94.20
2017-12-24T22:14:32.526Z,93.30
2017-12-24T22:17:00.775Z,93.60
2017-12-24T22:19:29.171Z,93.40
2017-12-24T22:21:57.392Z,93.40
2017-12-24T22:24:26.396Z,93.60
2017-12-24T22:26:56.591Z,93.10
2017-12-24T22:29:25.598Z,93.40
2017-12-24T22:31:54.610Z,93.80
2017-12-24T22:34:22.888Z,93.70
2017-12-24T22:36:51.134Z,94.00
2017-12-24T22:39:20.614Z,94.00
2017-12-24T22:41:49.159Z,94.10
2017-12-24T22:44:18.608Z,94.20
2017-12-24T22:46:46.854Z,94.00
2017-12-24T22:49:15.114Z,93.80
2017-12-24T22:51:43.365Z,93.70
2017-12-24T22:54:11.602Z,94.00
2017-12-24T22:56:40.074Z,94.60
2017-12-24T22:59:08.300Z,94.00
2017-12-24T23:01:37.314Z,92.90
2017-12-24T23:04:05.646Z,92.90
2017-12-24T23:06:33.886Z,94.00
2017-12-24T23:09:02.128Z,93.70
2017-12-24T23:11:31.422Z,93.00
2017-12-24T23:14:06.499Z,93.00
2017-12-24T23:16:34.885Z,94.10
2017-12-24T23:19:03.135Z,94.50
2017-12-24T23:21:31.404Z,94.20
2017-12-24T23:24:00.746Z,94.10
2017-12-24T23:26:28.982Z,94.00
2017-12-24T23:28:57.222Z,93.50
2017-12-24T23:31:25.523Z,93.30
2017-12-24T23:33:54.826Z,93.50
2017-12-24T23:36:25.031Z,94.20
2017-12-24T23:38:53.498Z,94.20
2017-12-24T23:41:21.771Z,94.00
2017-12-24T23:43:50.175Z,94.20
2017-12-24T23:46:19.264Z,94.60
2017-12-24T23:48:47.518Z,94.50
2017-12-24T23:51:15.763Z,94.30
2017-12-24T23:53:44.035Z,94.00
2017-12-24T23:56:12.281Z,93.70
2017-12-24T23:58:40.732Z,93.30
